Time;durP1;ratioP1;P1;durP2;ratioP2;P2;SDS_P1;SDS_P2;PMS_P1;PMS_P2;Temp;Humidity;BMP_temperature;BMP_pressure;BME280_temperature;BME280_humidity;BME280_pressure;Samples;Min_cycle;Max_cycle;Signal;HPM_P1;HPM_P2
2023/09/02 00:00:23;;;;;;;25.35;14.00;;;;;;;16.41;79.45;98987.00;4860537;29;20045;-60
2023/09/02 00:02:49;;;;;;;20.60;12.45;;;;;;;16.35;79.62;98988.91;4860271;29;20046;-57
2023/09/02 00:05:14;;;;;;;29.90;14.25;;;;;;;16.30;79.95;98991.66;4860229;29;20398;-59
2023/09/02 00:07:40;;;;;;;26.85;13.73;;;;;;;16.26;80.26;98994.09;4862884;29;20041;-59
2023/09/02 00:10:06;;;;;;;27.02;14.15;;;;;;;16.23;80.20;98988.53;4860212;29;20049;-59
2023/09/02 00:12:32;;;;;;;24.17;13.48;;;;;;;16.21;80.39;98988.81;4860077;29;20373;-58
2023/09/02 00:14:57;;;;;;;29.10;14.43;;;;;;;16.22;80.00;98989.63;4858808;29;20097;-59
2023/09/02 00:17:23;;;;;;;25.77;13.48;;;;;;;16.24;79.99;98990.13;4858465;29;20053;-58
2023/09/02 00:19:49;;;;;;;22.50;13.52;;;;;;;16.24;80.36;98982.13;4859422;29;20129;-59
2023/09/02 00:22:14;;;;;;;31.83;13.93;;;;;;;16.20;80.35;98986.41;4858543;29;20161;-56
2023/09/02 00:24:40;;;;;;;31.30;15.48;;;;;;;16.17;79.92;98982.44;4858545;29;20049;-58
2023/09/02 00:27:05;;;;;;;20.52;13.60;;;;;;;16.19;79.40;98980.28;4858210;29;20049;-56
2023/09/02 00:29:31;;;;;;;23.50;14.07;;;;;;;16.25;79.08;98986.38;4843518;29;20046;-58
2023/09/02 00:31:57;;;;;;;23.60;13.45;;;;;;;16.28;78.59;98983.13;4850491;29;20568;-59
2023/09/02 00:34:22;;;;;;;22.60;13.32;;;;;;;16.26;78.74;98979.94;4857560;29;20049;-59
2023/09/02 00:36:49;;;;;;;24.65;14.50;;;;;;;16.28;79.03;98985.81;4857443;29;20459;-57
2023/09/02 00:39:15;;;;;;;26.35;14.18;;;;;;;16.28;78.90;98980.44;4856183;29;20053;-58
2023/09/02 00:41:50;;;;;;;22.50;13.52;;;;;;;16.29;78.77;98982.03;4856006;29;20049;-58
2023/09/02 00:44:16;;;;;;;26.38;13.70;;;;;;;16.28;78.68;98975.09;4842130;29;20470;-56
2023/09/02 00:46:41;;;;;;;26.35;13.25;;;;;;;16.27;78.77;98978.88;4857978;29;20052;-58
2023/09/02 00:49:07;;;;;;;21.67;13.50;;;;;;;16.28;78.83;98975.91;4859456;29;20101;-58
2023/09/02 00:51:33;;;;;;;21.30;13.57;;;;;;;16.27;78.78;98973.53;4858854;29;20042;-57
2023/09/02 00:53:59;;;;;;;21.05;12.70;;;;;;;16.27;78.82;98978.88;4859328;29;20130;-58
2023/09/02 00:56:25;;;;;;;25.08;13.90;;;;;;;16.26;78.87;98975.38;4858063;29;20049;-58
2023/09/02 00:58:52;;;;;;;33.78;13.30;;;;;;;16.23;79.24;98972.47;4859715;29;20082;-57
2023/09/02 01:01:18;;;;;;;22.27;12.82;;;;;;;16.21;79.71;98972.78;4842551;29;20060;-58
2023/09/02 01:03:44;;;;;;;27.42;14.60;;;;;;;16.20;79.56;98973.06;4859586;29;20393;-57
2023/09/02 01:06:09;;;;;;;19.75;13.60;;;;;;;16.20;79.52;98975.72;4857870;29;20053;-58
2023/09/02 01:08:37;;;;;;;24.85;13.40;;;;;;;16.16;79.83;98967.47;4858117;29;20049;-58
2023/09/02 01:11:02;;;;;;;26.77;14.02;;;;;;;16.15;79.81;98973.09;4842349;29;20080;-58
2023/09/02 01:13:29;;;;;;;25.38;14.15;;;;;;;16.12;80.12;98967.25;4857936;29;20492;-58
2023/09/02 01:15:55;;;;;;;20.13;13.68;;;;;;;16.06;80.50;98968.41;4842596;29;20106;-58
2023/09/02 01:18:25;;;;;;;20.63;13.80;;;;;;;16.03;80.95;98968.97;4857842;29;20045;-57
2023/09/02 01:21:00;;;;;;;26.23;13.52;;;;;;;16.03;81.14;98970.81;4857651;29;20582;-58
2023/09/02 01:24:02;;;;;;;21.05;13.38;;;;;;;16.04;81.26;98977.78;4859711;29;20416;-57
2023/09/02 01:27:02;;;;;;;21.30;13.35;;;;;;;16.04;80.91;98981.25;4860241;29;20045;-57
2023/09/02 01:29:29;;;;;;;20.88;13.50;;;;;;;16.09;80.92;98983.06;4859281;29;20087;-55
2023/09/02 01:31:55;;;;;;;20.60;12.90;;;;;;;16.12;80.69;98991.31;4859073;29;20049;-58
2023/09/02 01:34:21;;;;;;;21.40;13.50;;;;;;;16.16;80.78;98993.44;4842336;29;20428;-58
2023/09/02 01:36:51;;;;;;;23.83;14.05;;;;;;;16.21;80.32;98988.81;4857510;29;20037;-58
2023/09/02 01:39:17;;;;;;;22.10;13.32;;;;;;;16.22;80.02;98989.63;4859136;29;20389;-58
2023/09/02 01:41:42;;;;;;;20.38;14.15;;;;;;;16.25;79.86;98991.72;4858568;29;20188;-58
2023/09/02 01:44:10;;;;;;;28.15;13.35;;;;;;;16.23;79.88;98991.19;4858953;29;20058;-58
2023/09/02 01:46:36;;;;;;;20.35;14.30;;;;;;;16.17;80.04;98987.00;4857465;29;20056;-58
2023/09/02 01:49:02;;;;;;;20.15;13.00;;;;;;;16.12;80.45;98982.50;4859025;29;20046;-58
2023/09/02 01:51:29;;;;;;;26.55;14.18;;;;;;;16.07;80.59;98990.56;4842051;29;20053;-57
2023/09/02 01:53:54;;;;;;;21.52;13.65;;;;;;;16.02;81.14;98979.91;4859206;29;20495;-57
2023/09/02 01:56:21;;;;;;;22.38;13.75;;;;;;;15.98;81.44;98976.22;4858864;29;20487;-58
2023/09/02 01:58:49;;;;;;;25.00;13.98;;;;;;;15.94;81.27;98975.97;4858420;29;20045;-57
2023/09/02 02:01:15;;;;;;;21.33;13.65;;;;;;;15.91;81.76;98971.19;4857669;29;20053;-57
2023/09/02 02:03:52;;;;;;;23.95;14.30;;;;;;;15.88;81.98;98977.94;4842307;29;20056;-56
2023/09/02 02:06:19;;;;;;;22.67;13.45;;;;;;;15.81;82.41;98974.78;4862418;29;20049;-57
2023/09/02 02:09:07;;;;;;;20.10;14.27;;;;;;;15.82;82.38;98971.00;4862573;29;20045;-57
2023/09/02 02:11:37;;;;;;;23.48;13.95;;;;;;;15.80;82.29;98972.41;4856148;29;20524;-57
2023/09/02 02:14:03;;;;;;;20.75;13.25;;;;;;;15.78;82.90;98978.00;4843950;29;20042;-57
2023/09/02 02:16:29;;;;;;;21.88;13.75;;;;;;;15.76;83.12;98969.47;4842553;29;20054;-57
2023/09/02 02:18:56;;;;;;;23.08;13.77;;;;;;;15.72;83.44;98973.78;4842166;29;20065;-57
2023/09/02 02:21:22;;;;;;;21.55;14.15;;;;;;;15.72;83.75;98973.78;4842271;29;20065;-57
2023/09/02 02:23:47;;;;;;;20.33;13.80;;;;;;;15.70;83.47;98970.59;4841290;29;20393;-57
2023/09/02 02:26:15;;;;;;;26.60;14.30;;;;;;;15.69;83.48;98970.88;4842433;29;20521;-59
2023/09/02 02:28:42;;;;;;;20.98;13.77;;;;;;;15.73;83.57;98974.59;4841119;29;20049;-56
2023/09/02 02:31:08;;;;;;;19.85;13.40;;;;;;;15.76;83.02;98974.81;4842162;29;20054;-58
2023/09/02 02:33:33;;;;;;;22.05;13.27;;;;;;;15.78;82.86;98977.22;4841205;29;20156;-56
2023/09/02 02:35:59;;;;;;;19.83;13.93;;;;;;;15.79;82.72;98971.56;4810528;29;20535;-59
2023/09/02 02:38:25;;;;;;;19.83;13.85;;;;;;;15.81;83.03;98973.97;4825871;29;20401;-59
2023/09/02 02:40:51;;;;;;;23.42;13.75;;;;;;;15.81;83.02;98980.13;4842209;29;20056;-60
2023/09/02 02:43:16;;;;;;;21.23;13.07;;;;;;;15.81;82.76;98972.09;4840776;29;20053;-58
2023/09/02 02:45:42;;;;;;;26.42;12.88;;;;;;;15.85;82.73;98981.16;4842399;29;20231;-59
2023/09/02 02:48:15;;;;;;;27.70;13.95;;;;;;;15.88;82.72;98977.09;4840669;29;20042;-58
2023/09/02 02:50:40;;;;;;;21.17;13.60;;;;;;;15.92;82.69;98975.47;4850228;29;20046;-58
2023/09/02 02:53:07;;;;;;;22.13;13.73;;;;;;;15.97;82.30;98974.63;4859231;29;20041;-58
2023/09/02 02:55:33;;;;;;;21.98;13.55;;;;;;;15.99;82.36;98977.81;4843809;29;20110;-58
2023/09/02 02:58:01;;;;;;;23.80;13.25;;;;;;;16.04;82.02;98972.44;4859157;29;20049;-58
2023/09/02 03:00:26;;;;;;;24.50;13.77;;;;;;;16.10;81.74;98972.09;4859324;29;20436;-58
2023/09/02 03:02:53;;;;;;;24.98;14.02;;;;;;;16.19;81.39;98984.84;4844294;29;20050;-58
2023/09/02 03:05:20;;;;;;;21.95;12.68;;;;;;;16.21;81.56;98977.34;4840567;29;20046;-58
2023/09/02 03:07:47;;;;;;;24.42;13.07;;;;;;;16.18;81.07;98977.88;4840381;29;20397;-59
2023/09/02 03:10:14;;;;;;;29.08;13.45;;;;;;;16.13;81.42;98973.41;4840480;29;20548;-58
2023/09/02 03:12:39;;;;;;;23.48;13.75;;;;;;;16.12;81.77;98975.28;4840316;29;20083;-58
2023/09/02 03:15:07;;;;;;;31.75;14.18;;;;;;;16.12;81.68;98967.25;4840451;29;20049;-57
2023/09/02 03:17:33;;;;;;;22.27;13.27;;;;;;;16.13;81.54;98968.03;4841820;29;20479;-58
2023/09/02 03:19:59;;;;;;;26.67;12.73;;;;;;;16.10;81.53;98966.72;4798457;29;1261611;-56
2023/09/02 03:22:26;;;;;;;20.45;12.73;;;;;;;16.07;81.65;98964.63;4840988;29;20321;-56
2023/09/02 03:24:55;;;;;;;23.70;13.88;;;;;;;16.10;81.66;98968.63;4841262;29;20046;-58
2023/09/02 03:27:24;;;;;;;25.17;13.05;;;;;;;16.12;81.18;98967.25;4841048;29;20058;-58
2023/09/02 03:29:51;;;;;;;20.65;13.00;;;;;;;16.15;81.56;98973.09;4841144;29;20068;-59
2023/09/02 03:32:18;;;;;;;20.27;13.40;;;;;;;16.20;81.13;98973.06;4840953;29;20077;-57
2023/09/02 03:34:44;;;;;;;19.70;12.77;;;;;;;16.25;80.75;98979.13;4841283;29;20577;-57
2023/09/02 03:37:10;;;;;;;21.45;13.75;;;;;;;16.28;80.77;98973.22;4844127;29;20076;-58
2023/09/02 03:39:37;;;;;;;22.17;13.30;;;;;;;16.30;80.38;98979.09;4860851;29;20081;-59
2023/09/02 03:42:02;;;;;;;20.33;12.98;;;;;;;16.30;80.37;98979.09;4859135;29;20156;-58
2023/09/02 03:44:28;;;;;;;16.08;12.38;;;;;;;16.35;80.12;98978.22;4860525;29;20057;-58
2023/09/02 03:46:54;;;;;;;25.13;12.98;;;;;;;16.42;79.57;98976.00;4859381;29;20420;-58
2023/09/02 03:49:20;;;;;;;19.77;12.82;;;;;;;16.46;79.41;98982.38;4859165;29;20054;-59
2023/09/02 03:51:45;;;;;;;20.23;12.80;;;;;;;16.53;79.08;98982.84;4858747;29;20037;-57
2023/09/02 03:54:11;;;;;;;25.95;13.32;;;;;;;16.60;79.08;98984.38;4843684;29;20045;-58
2023/09/02 03:56:39;;;;;;;21.10;13.65;;;;;;;16.65;78.68;98981.59;4858841;29;20420;-58
2023/09/02 03:59:08;;;;;;;24.23;13.73;;;;;;;16.71;78.39;98978.59;4859012;29;20058;-58
2023/09/02 04:01:34;;;;;;;21.63;13.67;;;;;;;16.74;78.03;98980.69;4859095;29;20049;-58
2023/09/02 04:04:01;;;;;;;20.50;13.43;;;;;;;16.77;77.72;98979.38;4858907;29;20046;-58
2023/09/02 04:06:26;;;;;;;20.05;13.05;;;;;;;16.84;77.50;98982.47;4858988;29;20048;-58
2023/09/02 04:08:52;;;;;;;24.70;13.00;;;;;;;16.86;77.32;98976.84;4858950;29;20416;-57
2023/09/02 04:11:18;;;;;;;26.88;13.27;;;;;;;16.89;77.12;98977.06;4860143;29;20065;-58
2023/09/02 04:13:44;;;;;;;26.23;13.70;;;;;;;16.98;76.97;98991.38;4860179;29;20052;-58
2023/09/02 04:16:11;;;;;;;29.88;14.02;;;;;;;17.06;76.58;98984.59;4843879;29;20053;-59
2023/09/02 04:18:37;;;;;;;22.27;12.98;;;;;;;17.13;76.23;98981.53;4860129;29;20530;-58
2023/09/02 04:21:04;;;;;;;27.80;13.93;;;;;;;17.21;75.90;98995.06;4828382;29;20069;-58
2023/09/02 04:23:32;;;;;;;25.38;14.18;;;;;;;17.34;75.33;99003.47;4843126;29;20077;-59
2023/09/02 04:26:03;;;;;;;23.05;13.80;;;;;;;17.51;74.47;98994.91;4858492;29;20546;-59
2023/09/02 04:28:29;;;;;;;19.20;12.80;;;;;;;17.61;74.12;98994.72;4827539;29;20046;-58
2023/09/02 04:30:56;;;;;;;20.83;13.27;;;;;;;17.67;73.97;98993.56;4858461;29;20121;-59
2023/09/02 04:33:24;;;;;;;24.27;14.52;;;;;;;17.76;73.66;98997.16;4858835;29;20045;-59
2023/09/02 04:35:52;;;;;;;21.23;13.35;;;;;;;17.85;73.42;99000.81;4858169;29;20105;-58
2023/09/02 04:38:17;;;;;;;22.02;13.50;;;;;;;17.93;72.88;99002.00;4858199;29;20105;-58
2023/09/02 04:40:47;;;;;;;19.30;13.40;;;;;;;17.92;72.62;99001.19;4842878;29;20073;-59
2023/09/02 04:43:14;;;;;;;21.10;14.23;;;;;;;17.96;72.43;99003.28;4858118;29;20061;-58
2023/09/02 04:45:42;;;;;;;20.88;14.07;;;;;;;17.93;72.49;98997.41;4858370;29;20057;-59
2023/09/02 04:48:11;;;;;;;22.00;13.18;;;;;;;17.93;72.92;99002.00;4858148;29;20042;-58
2023/09/02 04:50:38;;;;;;;20.08;14.45;;;;;;;17.97;72.70;99012.91;4824631;29;20539;-59
2023/09/02 04:53:09;;;;;;;22.27;13.52;;;;;;;18.02;72.54;99005.59;4845150;29;20053;-58
2023/09/02 04:55:39;;;;;;;23.85;13.65;;;;;;;18.07;72.26;99004.72;4859419;29;20424;-56
2023/09/02 04:58:07;;;;;;;27.77;14.10;;;;;;;18.12;72.26;99004.63;4854805;29;20042;-57
2023/09/02 05:00:35;;;;;;;22.23;13.07;;;;;;;18.22;72.03;99017.03;4839204;29;20098;-59
2023/09/02 05:03:01;;;;;;;22.88;12.90;;;;;;;18.31;71.72;99008.00;4808705;29;20054;-57
2023/09/02 05:05:29;;;;;;;19.50;13.27;;;;;;;18.37;71.74;99004.13;4839130;29;20580;-58
2023/09/02 05:07:56;;;;;;;26.38;14.55;;;;;;;18.44;70.76;99002.94;4824417;29;20140;-58
2023/09/02 05:10:24;;;;;;;25.83;13.43;;;;;;;18.46;71.07;99006.91;4839211;29;20042;-58
2023/09/02 05:12:50;;;;;;;24.50;14.05;;;;;;;18.57;70.58;99008.31;4839528;29;20101;-58
2023/09/02 05:15:16;;;;;;;21.20;14.02;;;;;;;18.67;70.13;99004.59;4839197;29;20050;-57
2023/09/02 05:17:45;;;;;;;20.73;13.10;;;;;;;18.80;69.97;99009.22;4840800;29;20524;-56
2023/09/02 05:20:12;;;;;;;22.25;13.88;;;;;;;18.87;69.42;99016.06;4839017;29;20086;-58
2023/09/02 05:22:37;;;;;;;19.27;13.55;;;;;;;18.91;69.67;99022.41;4839576;29;20144;-57
2023/09/02 05:25:04;;;;;;;27.17;14.25;;;;;;;18.97;69.42;99010.47;4840439;29;20424;-60
2023/09/02 05:27:30;;;;;;;24.52;14.05;;;;;;;19.03;68.75;99011.94;4839970;29;20140;-57
2023/09/02 05:29:56;;;;;;;24.50;13.77;;;;;;;19.09;68.89;99020.69;4824703;29;20056;-59
2023/09/02 05:32:22;;;;;;;24.73;14.73;;;;;;;19.17;68.30;99020.75;4840524;29;20053;-57
2023/09/02 05:34:47;;;;;;;21.00;13.63;;;;;;;19.17;68.47;99015.38;4823848;29;20050;-60
2023/09/02 05:37:13;;;;;;;21.85;13.60;;;;;;;19.27;68.30;99017.06;4840565;29;20129;-59
2023/09/02 05:39:42;;;;;;;19.23;13.32;;;;;;;19.30;67.63;99011.09;4843640;29;20056;-57
2023/09/02 05:42:08;;;;;;;29.00;14.70;;;;;;;19.36;67.75;99017.94;4813483;29;20524;-59
2023/09/02 05:44:37;;;;;;;24.88;14.13;;;;;;;19.44;67.35;99022.59;4827659;29;20052;-59
2023/09/02 05:47:03;;;;;;;30.02;13.85;;;;;;;19.51;67.47;99014.88;4843727;29;20488;-58
2023/09/02 05:49:29;;;;;;;20.90;13.73;;;;;;;19.58;67.45;99014.44;4843699;29;20078;-59
2023/09/02 05:51:55;;;;;;;24.38;13.80;;;;;;;19.68;67.11;99025.00;4843043;29;20452;-58
2023/09/02 05:54:21;;;;;;;19.80;13.60;;;;;;;19.69;67.66;99026.56;4862366;29;20045;-60
2023/09/02 05:56:47;;;;;;;24.05;13.70;;;;;;;19.72;67.49;99025.97;4862617;29;20052;-57
2023/09/02 05:59:13;;;;;;;21.33;13.15;;;;;;;19.76;67.67;99022.66;4862516;29;20049;-59
2023/09/02 06:01:38;;;;;;;39.22;27.38;;;;;;;19.78;67.69;99026.63;4862993;29;20458;-56
2023/09/02 06:04:04;;;;;;;36.20;24.27;;;;;;;19.79;67.78;99027.41;4862544;29;20548;-58
2023/09/02 06:06:30;;;;;;;27.75;20.50;;;;;;;19.75;67.99;99032.63;4862677;29;20052;-58
2023/09/02 06:08:56;;;;;;;33.97;21.20;;;;;;;19.78;68.15;99033.91;4861564;29;20095;-58
2023/09/02 06:11:21;;;;;;;28.33;19.15;;;;;;;19.70;68.19;99033.53;4860754;29;20041;-59
2023/09/02 06:13:47;;;;;;;22.77;17.27;;;;;;;19.77;68.79;99029.63;4862491;29;20105;-59
2023/09/02 06:16:13;;;;;;;24.65;16.60;;;;;;;19.80;68.01;99024.44;4846376;29;20052;-59
2023/09/02 06:18:38;;;;;;;29.08;18.38;;;;;;;19.89;67.87;99027.19;4845157;29;20057;-59
2023/09/02 06:21:09;;;;;;;25.85;17.65;;;;;;;19.94;67.83;99030.53;4840179;29;20094;-60
2023/09/02 06:23:34;;;;;;;28.98;17.60;;;;;;;20.04;67.38;99029.47;4841675;29;20102;-60
2023/09/02 06:26:00;;;;;;;27.90;17.48;;;;;;;19.96;67.76;99028.31;4858655;29;20046;-62
2023/09/02 06:28:27;;;;;;;24.63;16.45;;;;;;;20.07;67.79;99041.53;4860768;29;20515;-58
2023/09/02 06:30:53;;;;;;;24.40;15.63;;;;;;;20.16;67.55;99037.75;4845056;29;20045;-58
2023/09/02 06:33:21;;;;;;;27.10;15.32;;;;;;;20.34;67.33;99041.31;4859842;29;20113;-59
2023/09/02 06:35:47;;;;;;;21.92;14.32;;;;;;;20.44;65.92;99042.94;4859926;29;20069;-57
2023/09/02 06:38:13;;;;;;;22.90;14.00;;;;;;;20.57;65.35;99042.09;4861519;29;20037;-54
2023/09/02 06:40:38;;;;;;;22.35;14.45;;;;;;;20.62;63.84;99041.94;4860309;29;20117;-59
2023/09/02 06:43:04;;;;;;;24.70;15.43;;;;;;;20.68;63.45;99036.41;4860320;29;20062;-56
2023/09/02 06:45:30;;;;;;;25.95;14.93;;;;;;;20.74;63.35;99035.97;4844366;29;20053;-60
2023/09/02 06:47:55;;;;;;;30.92;14.85;;;;;;;20.81;63.23;99035.50;4867252;29;20483;-57
2023/09/02 06:50:21;;;;;;;23.50;13.93;;;;;;;20.94;62.95;99039.97;4868843;29;20050;-58
2023/09/02 06:52:47;;;;;;;25.95;14.52;;;;;;;21.08;62.63;99043.31;4860608;29;20049;-58
2023/09/02 06:55:14;;;;;;;25.13;13.77;;;;;;;21.25;60.64;99047.13;4844212;29;20045;-60
2023/09/02 06:57:42;;;;;;;18.30;12.93;;;;;;;21.40;59.86;99060.16;4859857;29;20073;-59
2023/09/02 07:00:09;;;;;;;19.10;11.98;;;;;;;21.61;59.09;99062.22;4859286;29;20044;-59
2023/09/02 07:02:34;;;;;;;17.65;12.32;;;;;;;21.70;58.23;99058.41;4858526;29;20053;-58
2023/09/02 07:05:00;;;;;;;22.98;12.95;;;;;;;21.81;58.61;99066.97;4856711;29;20049;-60
2023/09/02 07:07:26;;;;;;;16.70;11.88;;;;;;;21.84;58.11;99068.25;4860732;29;20101;-58
2023/09/02 07:09:52;;;;;;;17.80;13.40;;;;;;;21.80;57.79;99070.00;4860508;29;20061;-61
2023/09/02 07:12:18;;;;;;;23.92;13.05;;;;;;;21.83;58.43;99074.75;4860806;29;20073;-60
2023/09/02 07:14:45;;;;;;;21.25;12.98;;;;;;;21.78;58.47;99076.50;4860341;29;20061;-59
2023/09/02 07:17:11;;;;;;;22.83;12.57;;;;;;;21.75;57.92;99070.94;4859709;29;20073;-61
2023/09/02 07:19:36;;;;;;;19.40;12.13;;;;;;;21.68;58.00;99076.03;4860418;29;20101;-61
2023/09/02 07:22:02;;;;;;;23.73;12.63;;;;;;;21.66;57.57;99083.66;4860649;29;20531;-61
2023/09/02 07:24:28;;;;;;;21.65;12.82;;;;;;;21.63;57.72;99082.38;4859363;29;20457;-60
2023/09/02 07:26:54;;;;;;;18.48;12.68;;;;;;;21.63;57.49;99079.69;4860699;29;20041;-60
2023/09/02 07:29:20;;;;;;;21.55;12.88;;;;;;;21.55;58.48;99086.66;4858977;29;20050;-61
2023/09/02 07:31:45;;;;;;;19.02;12.40;;;;;;;21.56;58.63;99090.16;4858681;29;20049;-61
2023/09/02 07:34:11;;;;;;;22.75;12.98;;;;;;;21.57;59.07;99094.44;4858970;29;20183;-62
2023/09/02 07:36:37;;;;;;;21.50;12.15;;;;;;;21.59;59.47;99094.09;4859009;29;20057;-59
2023/09/02 07:39:03;;;;;;;21.27;12.30;;;;;;;21.62;59.10;99096.16;4860026;29;20050;-60
2023/09/02 07:41:28;;;;;;;16.05;12.57;;;;;;;21.59;59.25;99097.63;4860009;29;20049;-60
2023/09/02 07:43:54;;;;;;;19.05;12.45;;;;;;;21.47;59.64;99090.16;4860516;29;20108;-61
2023/09/02 07:46:19;;;;;;;22.92;13.05;;;;;;;21.38;60.04;99096.63;4859840;29;20045;-61
2023/09/02 07:48:48;;;;;;;27.90;14.93;;;;;;;21.36;60.25;99096.97;4860286;29;20082;-59
2023/09/02 07:51:14;;;;;;;22.98;12.82;;;;;;;21.32;60.06;99099.47;4858199;29;20105;-59
2023/09/02 07:53:39;;;;;;;22.52;13.23;;;;;;;21.24;59.85;99102.94;4843554;29;20045;-59
2023/09/02 07:56:05;;;;;;;23.63;13.10;;;;;;;21.19;59.85;99095.00;4858737;29;20054;-57
2023/09/02 07:58:31;;;;;;;20.70;13.05;;;;;;;21.15;60.05;99095.94;4860441;29;20052;-59
2023/09/02 08:00:57;;;;;;;22.00;13.95;;;;;;;21.05;60.99;99094.34;4859136;29;20053;-61
2023/09/02 08:03:23;;;;;;;22.02;13.30;;;;;;;20.92;61.36;99106.84;4842644;29;20053;-60
2023/09/02 08:05:48;;;;;;;22.63;12.35;;;;;;;20.91;62.13;99109.84;4859950;29;20045;-61
2023/09/02 08:08:14;;;;;;;26.30;13.80;;;;;;;20.90;62.99;99121.72;4860167;29;20404;-60
2023/09/02 08:10:39;;;;;;;24.63;13.38;;;;;;;20.88;64.17;99108.56;4859489;29;20049;-62
2023/09/02 08:13:05;;;;;;;21.25;12.90;;;;;;;20.93;64.46;99113.81;4858583;29;20098;-59
2023/09/02 08:15:31;;;;;;;20.73;13.50;;;;;;;20.93;64.65;99113.03;4859179;29;20049;-59
2023/09/02 08:17:57;;;;;;;21.17;14.00;;;;;;;20.95;64.41;99106.22;4859485;29;20056;-59
2023/09/02 08:20:23;;;;;;;20.92;13.73;;;;;;;20.89;64.05;99095.91;4858073;29;20068;-59
2023/09/02 08:22:48;;;;;;;20.67;13.48;;;;;;;20.79;64.73;99100.44;4859419;29;20094;-58
2023/09/02 08:25:14;;;;;;;25.60;13.90;;;;;;;20.74;65.00;99097.91;4859158;29;20065;-61
2023/09/02 08:27:46;;;;;;;22.38;14.85;;;;;;;20.68;65.57;99104.53;4858493;29;20049;-60
2023/09/02 08:30:12;;;;;;;22.63;15.18;;;;;;;20.59;65.87;99114.50;4859334;29;20045;-59
2023/09/02 08:32:38;;;;;;;22.13;15.23;;;;;;;20.55;66.81;99122.38;4859369;29;20052;-59
2023/09/02 08:35:05;;;;;;;24.48;16.17;;;;;;;20.56;67.37;99126.66;4842661;29;20045;-61
2023/09/02 08:37:31;;;;;;;23.02;15.10;;;;;;;20.57;67.52;99122.88;4859096;29;20049;-60
2023/09/02 08:39:57;;;;;;;26.13;16.20;;;;;;;20.49;67.61;99125.47;4857994;29;20049;-61
2023/09/02 08:42:25;;;;;;;26.35;16.85;;;;;;;20.36;67.71;99138.72;4859341;29;20097;-60
2023/09/02 08:44:51;;;;;;;26.75;16.85;;;;;;;20.31;68.19;99140.75;4858895;29;20447;-60
2023/09/02 08:47:19;;;;;;;28.38;17.20;;;;;;;20.26;68.92;99138.19;4841048;29;20053;-58
2023/09/02 08:49:45;;;;;;;26.58;18.52;;;;;;;20.16;68.93;99147.31;4854203;29;20058;-59
2023/09/02 08:52:12;;;;;;;30.55;17.75;;;;;;;20.15;69.69;99148.41;4858193;29;20059;-59
2023/09/02 08:54:38;;;;;;;29.65;18.23;;;;;;;20.15;69.95;99137.66;4858862;29;20058;-60
2023/09/02 08:57:05;;;;;;;34.75;19.10;;;;;;;20.00;71.03;99152.28;4857726;29;20046;-60
2023/09/02 08:59:31;;;;;;;24.95;18.27;;;;;;;19.98;70.68;99150.97;4856359;29;20060;-57
2023/09/02 09:01:56;;;;;;;29.98;18.17;;;;;;;20.01;70.72;99151.16;4838929;29;20054;-60
2023/09/02 09:04:22;;;;;;;28.73;18.60;;;;;;;20.10;70.94;99153.91;4840308;29;20466;-61
2023/09/02 09:06:49;;;;;;;32.03;20.05;;;;;;;20.11;70.84;99155.50;4839386;29;20137;-59
2023/09/02 09:09:15;;;;;;;29.92;19.42;;;;;;;20.08;69.80;99164.19;4839286;29;20082;-59
2023/09/02 09:11:44;;;;;;;30.52;19.35;;;;;;;20.08;69.32;99164.19;4838862;29;20049;-57
2023/09/02 09:14:17;;;;;;;24.25;18.80;;;;;;;20.09;68.96;99165.75;4839008;29;20060;-59
2023/09/02 09:16:44;;;;;;;27.35;19.67;;;;;;;20.11;69.11;99168.94;4839484;29;20500;-60
2023/09/02 09:19:09;;;;;;;33.40;21.60;;;;;;;20.10;69.23;99175.44;4840198;29;20427;-59
2023/09/02 09:21:35;;;;;;;27.52;21.50;;;;;;;20.10;69.44;99184.31;4839909;29;20062;-60
2023/09/02 09:24:02;;;;;;;31.70;20.52;;;;;;;20.05;69.48;99183.63;4838957;29;20054;-59
2023/09/02 09:26:28;;;;;;;29.38;19.65;;;;;;;20.00;70.11;99181.88;4840079;29;20057;-59
2023/09/02 09:28:58;;;;;;;28.25;19.80;;;;;;;19.90;70.21;99184.78;4839015;29;20144;-59
2023/09/02 09:31:25;;;;;;;32.45;20.83;;;;;;;19.86;70.79;99187.28;4839271;29;20054;-61
2023/09/02 09:33:59;;;;;;;28.13;20.35;;;;;;;19.84;71.67;99188.69;4840495;29;20042;-59
2023/09/02 09:36:26;;;;;;;32.40;21.40;;;;;;;19.76;71.19;99184.81;4838816;29;20050;-60
2023/09/02 09:38:56;;;;;;;28.40;22.27;;;;;;;19.71;71.53;99199.16;4839080;29;20053;-59
2023/09/02 09:41:26;;;;;;;31.10;23.10;;;;;;;19.73;72.14;99201.53;4839812;29;20050;-60
2023/09/02 09:44:15;;;;;;;33.83;20.92;;;;;;;19.73;72.90;99190.78;4840022;29;20492;-60
2023/09/02 09:46:44;;;;;;;27.48;21.80;;;;;;;19.73;73.01;99205.03;4839066;29;20493;-59
2023/09/02 09:49:25;;;;;;;28.17;22.05;;;;;;;19.76;72.67;99200.94;4839764;29;20531;-60
2023/09/02 09:52:00;;;;;;;32.15;22.42;;;;;;;19.78;72.35;99203.34;4856638;29;20051;-60
2023/09/02 09:54:48;;;;;;;37.53;22.80;;;;;;;19.78;73.07;99206.81;4857280;29;20500;-60
2023/09/02 09:57:16;;;;;;;31.35;23.30;;;;;;;19.85;73.62;99209.09;4858571;29;20136;-59
2023/09/02 09:59:52;;;;;;;40.13;29.50;;;;;;;19.91;73.42;99208.69;4858140;29;20135;-60
2023/09/02 10:02:19;;;;;;;44.00;31.40;;;;;;;19.98;73.28;99213.66;4858897;29;20557;-59
2023/09/02 10:04:52;;;;;;;45.85;30.98;;;;;;;20.01;73.04;99210.34;4856746;29;20528;-61
2023/09/02 10:07:31;;;;;;;42.33;28.05;;;;;;;20.03;74.27;99210.03;4858756;29;20560;-59
2023/09/02 10:09:59;;;;;;;39.67;28.60;;;;;;;19.96;75.29;99208.56;4858800;29;20045;-60
2023/09/02 10:12:25;;;;;;;38.47;29.63;;;;;;;20.03;74.38;99210.03;4857505;29;20049;-60
2023/09/02 10:14:51;;;;;;;30.98;21.23;;;;;;;20.05;74.28;99210.53;4858130;29;20053;-61
2023/09/02 10:17:17;;;;;;;30.13;20.33;;;;;;;20.13;73.45;99217.88;4858424;29;20073;-61
2023/09/02 10:19:44;;;;;;;27.13;19.80;;;;;;;20.07;73.23;99219.88;4857813;29;20122;-58
2023/09/02 10:22:21;;;;;;;29.60;19.73;;;;;;;20.11;74.29;99212.78;4858204;29;20121;-59
2023/09/02 10:25:00;;;;;;;30.30;19.70;;;;;;;20.05;74.72;99221.28;4858290;29;20056;-60
2023/09/02 10:27:26;;;;;;;24.92;18.27;;;;;;;20.07;74.78;99219.88;4859631;29;20057;-59
2023/09/02 10:29:55;;;;;;;23.10;18.45;;;;;;;20.14;74.02;99216.78;4841826;29;20078;-60
2023/09/02 10:32:24;;;;;;;28.88;18.27;;;;;;;20.23;75.66;99216.84;4861416;29;20079;-60
2023/09/02 10:35:04;;;;;;;22.25;18.25;;;;;;;20.34;75.34;99223.56;4844895;29;20097;-61
2023/09/02 10:37:44;;;;;;;25.70;19.48;;;;;;;20.35;75.45;99223.28;4860037;29;20062;-60
2023/09/02 10:40:15;;;;;;;32.97;20.35;;;;;;;20.46;75.62;99223.81;4860516;29;20046;-60
2023/09/02 10:42:41;;;;;;;25.67;19.70;;;;;;;20.42;74.86;99218.25;4860675;29;20508;-58
2023/09/02 10:45:07;;;;;;;38.40;24.77;;;;;;;20.47;75.73;99228.13;4861022;29;20045;-62
2023/09/02 10:47:33;;;;;;;29.52;20.13;;;;;;;20.53;74.83;99221.53;4861871;29;20373;-59
2023/09/02 10:49:59;;;;;;;31.38;20.90;;;;;;;20.49;74.83;99220.50;4859736;29;20037;-61
2023/09/02 10:52:24;;;;;;;24.98;19.45;;;;;;;20.56;74.66;99223.59;4860082;29;20137;-60
2023/09/02 10:55:04;;;;;;;29.58;19.98;;;;;;;20.66;72.45;99240.63;4861262;29;20498;-62
2023/09/02 10:57:47;;;;;;;27.40;19.63;;;;;;;20.67;72.16;99245.69;4860299;29;20049;-61
2023/09/02 11:00:19;;;;;;;23.38;18.55;;;;;;;20.70;72.10;99241.56;4860092;29;20527;-60
2023/09/02 11:02:47;;;;;;;28.25;18.48;;;;;;;20.73;72.38;99235.56;4861379;29;20064;-62
2023/09/02 11:05:13;;;;;;;32.35;19.55;;;;;;;20.74;72.46;99234.50;4861280;29;20056;-61
2023/09/02 11:07:40;;;;;;;27.80;18.77;;;;;;;20.80;72.56;99239.44;4859867;29;20042;-62
2023/09/02 11:10:07;;;;;;;29.30;20.20;;;;;;;20.89;72.58;99244.88;4861413;29;20050;-60
2023/09/02 11:12:36;;;;;;;30.00;20.48;;;;;;;20.93;71.93;99245.03;4859783;29;20041;-59
2023/09/02 11:15:11;;;;;;;31.38;20.00;;;;;;;20.97;72.51;99246.81;4844877;29;20512;-60
2023/09/02 11:17:40;;;;;;;28.23;21.02;;;;;;;20.94;72.05;99247.44;4859661;29;20415;-60